Benzonia, Michigan
Current Conditions -  °F | °C
As of 1:35 PM on Sunday 21 Dec 2014 (Local Time) from KFKS Reporting Station
Haze Haze  
Wind Chill: 26°   Ceiling: 3900
Heat Index: 34°   Visibility: 5mi
Dew Point: 31°   Wind: 9mph
Humidity: 91%   Direction: 170°S
Pressure: 30.12"   Gusts: NA
Location:  44.62°N, 86.1°W
Report Text: KFKS 211835Z AUTO 17008KT 5SM BR SCT012 OVC039 01/00 A3012 RMK AO2 T00101003
Loading
Personal Weather Stations






























Interactive Weather Map New forecast layout! Learn more

10-Day Weather Forecast

Advertisements
Track Severe Weather on mobile